Inner Beacon (Inner Reciprocal Marker) automatic weather station will be offline from 30 April 2019 for several months while the supporting marine navigation infrastructure is replaced. During this time please access nearby wind observations from Brisbane Airport and Spitfire Channel.

Latest Weather Observations for Inner Beacon

IDQ60901

Issued at 4:51 pm EST Tuesday 26 May 2020 (issued every 10 minutes, with the page automatically refreshed every 10 minutes)

About weather observations | Map of Brisbane area stations | Latest observations for Brisbane area | Other Formats
Station Details ID: 040926 Name: INNER RECIPROCAL MARKER Lat: -27.26 Lon: 153.24 Height: 10.0 m
Data from the previous 72 hours. | See also: Recent months at Inner Beacon
Date/Time
EST
Temp
°C
App
Temp
°C
Dew
Point
°C
Rel
Hum
%
Delta-T
°C
Wind Press
QNH
hPa
Press
MSL
hPa
Rain since
9am
mm
Dir  Spd
km/h
Gust
km/h
Spd
kts
Gust
kts
26/04:30pm - - - - - N 19 22 10 12 - - -
26/04:00pm - - - - - N 15 17 8 9 - - -
26/03:30pm - - - - - N 11 13 6 7 - - -
26/03:00pm - - - - - N 11 13 6 7 - - -
26/02:30pm - - - - - N 11 13 6 7 - - -
26/02:00pm - - - - - N 9 11 5 6 - - -
26/01:30pm - - - - - NNE 9 11 5 6 - - -
26/01:00pm - - - - - NNE 6 9 3 5 - - -
26/12:30pm - - - - - NNE 6 7 3 4 - - -
26/12:00pm - - - - - CALM 0 0 0 0 - - -
26/11:30am - - - - - CALM 0 0 0 0 - - -
26/11:00am - - - - - NNW 4 6 2 3 - - -
26/10:30am - - - - - WNW 7 11 4 6 - - -
26/10:00am - - - - - W 9 11 5 6 - - -
26/09:30am - - - - - WSW 11 15 6 8 - - -
26/09:00am - - - - - WNW 13 15 7 8 - - -
26/08:30am - - - - - W 15 19 8 10 - - -
26/08:00am - - - - - W 19 22 10 12 - - -
26/07:30am - - - - - WSW 20 22 11 12 - - -
26/07:00am - - - - - WSW 22 24 12 13 - - -
26/06:30am - - - - - W 22 26 12 14 - - -
26/06:00am - - - - - W 22 26 12 14 - - -
26/05:30am - - - - - W 19 20 10 11 - - -
26/05:00am - - - - - WSW 19 22 10 12 - - -
26/04:30am - - - - - W 17 20 9 11 - - -
26/04:00am - - - - - W 17 19 9 10 - - -
26/03:30am - - - - - W 17 19 9 10 - - -
26/03:00am - - - - - W 17 20 9 11 - - -
26/02:30am - - - - - WNW 15 19 8 10 - - -
26/02:00am - - - - - WNW 15 17 8 9 - - -
26/01:30am - - - - - WNW 13 15 7 8 - - -
26/01:00am - - - - - WNW 11 13 6 7 - - -
26/12:30am - - - - - WNW 13 17 7 9 - - -
26/12:00am - - - - - WNW 13 17 7 9 - - -
 
Date/Time
EST
Temp
°C
App
Temp
°C
Dew
Point
°C
Rel
Hum
%
Delta-T
°C
Wind Press
QNH
hPa
Press
MSL
hPa
Rain since
9am
mm
Dir  Spd
km/h
Gust
km/h
Spd
kts
Gust
kts
25/11:30pm - - - - - WNW 17 19 9 10 - - -
25/11:00pm - - - - - W 13 15 7 8 - - -
25/10:30pm - - - - - WNW 15 17 8 9 - - -
25/10:00pm - - - - - NNW 17 20 9 11 - - -
25/09:30pm - - - - - NNW 22 24 12 13 - - -
25/09:00pm - - - - - NW 20 24 11 13 - - -
25/08:30pm - - - - - WNW 20 24 11 13 - - -
25/08:00pm - - - - - NNW 19 22 10 12 - - -
25/07:30pm - - - - - NNW 17 20 9 11 - - -
25/07:00pm - - - - - N 17 20 9 11 - - -
25/06:30pm - - - - - N 19 22 10 12 - - -
25/06:00pm - - - - - NNE 11 13 6 7 - - -
25/05:30pm - - - - - NNE 11 13 6 7 - - -
25/05:00pm - - - - - N 13 15 7 8 - - -
25/04:30pm - - - - - NNE 13 15 7 8 - - -
25/04:00pm - - - - - NNE 11 13 6 7 - - -
25/03:30pm - - - - - NE 7 11 4 6 - - -
25/03:00pm - - - - - NE 7 9 4 5 - - -
25/02:30pm - - - - - NE 6 6 3 3 - - -
25/02:00pm - - - - - ENE 7 7 4 4 - - -
25/01:30pm - - - - - ENE 7 9 4 5 - - -
25/01:00pm - - - - - E 6 6 3 3 - - -
25/12:30pm - - - - - SE 2 4 1 2 - - -
25/12:00pm - - - - - CALM 0 0 0 0 - - -
25/11:30am - - - - - SSW 6 7 3 4 - - -
25/11:00am - - - - - S 13 15 7 8 - - -
25/10:30am - - - - - SSW 17 19 9 10 - - -
25/10:00am - - - - - SSW 11 13 6 7 - - -
25/09:30am - - - - - SW 13 17 7 9 - - -
25/09:00am - - - - - SW 19 20 10 11 - - -
25/08:30am - - - - - SW 20 24 11 13 - - -
25/08:00am - - - - - SW 20 24 11 13 - - -
25/07:30am - - - - - SW 22 26 12 14 - - -
25/07:00am - - - - - SW 19 22 10 12 - - -
25/06:30am - - - - - SW 19 22 10 12 - - -
25/06:00am - - - - - SW 17 20 9 11 - - -
25/05:30am - - - - - WSW 22 26 12 14 - - -
25/05:00am - - - - - WSW 20 24 11 13 - - -
25/04:30am - - - - - WSW 19 22 10 12 - - -
25/04:00am - - - - - W 20 24 11 13 - - -
25/03:30am - - - - - W 17 19 9 10 - - -
25/03:00am - - - - - WNW 19 20 10 11 - - -
25/02:30am - - - - - W 17 20 9 11 - - -
25/02:00am - - - - - W 17 20 9 11 - - -
25/01:30am - - - - - W 24 30 13 16 - - -
25/01:00am - - - - - WSW 20 26 11 14 - - -
25/12:30am - - - - - WSW 22 28 12 15 - - -
25/12:00am - - - - - WSW 28 33 15 18 - - -
 
Date/Time
EST
Temp
°C
App
Temp
°C
Dew
Point
°C
Rel
Hum
%
Delta-T
°C
Wind Press
QNH
hPa
Press
MSL
hPa
Rain since
9am
mm
Dir  Spd
km/h
Gust
km/h
Spd
kts
Gust
kts
24/11:30pm - - - - - WSW 32 37 17 20 - - -
24/11:00pm - - - - - WSW 30 35 16 19 - - -
24/10:30pm - - - - - WSW 32 39 17 21 - - -
24/10:00pm - - - - - WSW 33 44 18 24 - - -
24/09:30pm - - - - - WSW 37 44 20 24 - - -
24/09:00pm - - - - - WSW 37 44 20 24 - - -
24/08:30pm - - - - - WSW 35 43 19 23 - - -
24/08:00pm - - - - - WSW 33 43 18 23 - - -
24/07:30pm - - - - - WSW 32 41 17 22 - - -
24/07:00pm - - - - - WSW 30 35 16 19 - - -
24/06:30pm - - - - - W 26 32 14 17 - - -
24/06:00pm - - - - - W 24 28 13 15 - - -
24/05:30pm - - - - - W 26 32 14 17 - - -
24/05:00pm - - - - - W 30 35 16 19 - - -
24/04:30pm - - - - - W 32 37 17 20 - - -
24/04:00pm - - - - - WSW 33 39 18 21 - - -
24/03:30pm - - - - - WSW 28 33 15 18 - - -
24/03:00pm - - - - - W 24 28 13 15 - - -
24/02:30pm - - - - - WSW 22 28 12 15 - - -
24/02:00pm - - - - - WSW 20 24 11 13 - - -
24/01:30pm - - - - - WSW 20 24 11 13 - - -
24/01:00pm - - - - - W 17 20 9 11 - - -
24/12:30pm - - - - - W 19 22 10 12 - - -
24/12:00pm - - - - - WSW 19 22 10 12 - - -
24/11:30am - - - - - W 20 24 11 13 - - -
24/11:00am - - - - - WSW 20 26 11 14 - - -
24/10:30am - - - - - W 20 24 11 13 - - -
24/10:00am - - - - - SW 20 24 11 13 - - -
24/09:30am - - - - - WSW 22 28 12 15 - - -
24/09:00am - - - - - WSW 26 32 14 17 - - -
24/08:30am - - - - - WSW 24 30 13 16 - - -
24/08:00am - - - - - WSW 26 32 14 17 - - -
24/07:30am - - - - - W 28 33 15 18 - - -
24/07:00am - - - - - WSW 28 37 15 20 - - -
24/06:30am - - - - - WSW 30 37 16 20 - - -
24/06:00am - - - - - WSW 33 41 18 22 - - -
24/05:30am - - - - - WSW 37 46 20 25 - - -
24/05:00am - - - - - WSW 41 50 22 27 - - -
24/04:30am - - - - - WSW 43 52 23 28 - - -
24/04:00am - - - - - WSW 43 50 23 27 - - -
24/03:30am - - - - - W 37 46 20 25 - - -
24/03:00am - - - - - WSW 37 46 20 25 - - -
24/02:30am - - - - - W 37 43 20 23 - - -
24/02:00am - - - - - WSW 35 44 19 24 - - -
24/01:30am - - - - - WSW 39 44 21 24 - - -
24/01:00am - - - - - WSW 43 50 23 27 - - -
24/12:30am - - - - - WSW 39 46 21 25 - - -
24/12:00am - - - - - WSW 41 50 22 27 - - -
 
Date/Time
EST
Temp
°C
App
Temp
°C
Dew
Point
°C
Rel
Hum
%
Delta-T
°C
Wind Press
QNH
hPa
Press
MSL
hPa
Rain since
9am
mm
Dir  Spd
km/h
Gust
km/h
Spd
kts
Gust
kts
23/11:30pm - - - - - WSW 43 50 23 27 - - -
23/11:00pm - - - - - WSW 39 48 21 26 - - -
23/10:30pm - - - - - WSW 43 50 23 27 - - -
23/10:00pm - - - - - WSW 44 54 24 29 - - -
23/09:30pm - - - - - WSW 43 50 23 27 - - -
23/09:00pm - - - - - WSW 37 46 20 25 - - -
23/08:30pm - - - - - WSW 37 48 20 26 - - -
23/08:00pm - - - - - WSW 32 41 17 22 - - -
23/07:30pm - - - - - W 32 41 17 22 - - -
23/07:00pm - - - - - W 28 35 15 19 - - -
23/06:30pm - - - - - WSW 26 33 14 18 - - -
23/06:00pm - - - - - WNW 19 28 10 15 - - -
23/05:30pm - - - - - W 22 37 12 20 - - -
23/05:00pm - - - - - W 28 35 15 19 - - -

Latest Capital City Observations: Canberra | Sydney | Melbourne | Brisbane | Adelaide | Perth | Hobart | Darwin

Other formats

Comma delimited format used in spreadsheet applications
http://www.bom.gov.au/fwo/IDQ60901/IDQ60901.94590.axf

JavaScript Object Notation format (JSON) in row-major order
http://www.bom.gov.au/fwo/IDQ60901/IDQ60901.94590.json

Data quality

Most of these data are generated automatically and are frequently updated. Quality checks on data are not normally performed. It is possible for incorrect values to appear. Refer to information at About Latest Weather Observations and please check the disclaimer before using these data.